Wilson Gdynia — 8PSA — position and weather

sailwx.info

Track history (hours):
 
Tides and Currents Weather Stations Pressure Air Temp Water Temp Dewpoint Dewpoint Depression Visibility Wind Speed Wind Dir Waves Ship Positions

Wilson Gdynia

Last reported at 2014-Dec-17 06:15 UTC. Time now 2014-Dec-18 16:24 UTC.
Position N 58°02' W 006°09'.

Length 88 m; draft 5.5 m.

Type: Cargo ship. MMSI: 314192000.

Date/timePositionNaut miles runAvg speedWind from/ knotsBaromVisibWave heightAir tempDewpointWater temp
2014-Dec-17 06:15N 58°02' W 006°09'5 7.6
2014-Dec-17 05:33N 58°06' W 006°03'8 7.5
2014-Dec-17 04:33N 58°11' W 005°53'7 7.2
2014-Dec-17 03:34N 58°17' W 005°43'47 6.6
2014-Dec-16 20:31N 58°41' W 004°27'7 7.4
2014-Dec-16 19:34N 58°42' W 004°14'7 6.9
2014-Dec-16 18:33N 58°42' W 004°00'6 6.2
2014-Dec-16 17:33N 58°42' W 003°48'6 5.5
2014-Dec-16 16:33N 58°43' W 003°38'5 4.6
2014-Dec-16 15:28N 58°43' W 003°28'9 4.3
2014-Dec-16 13:19N 58°43' W 003°10'4 5.9
2014-Dec-16 12:33N 58°43' W 003°02'8 7.9
2014-Dec-16 11:32N 58°42' W 002°46'  
2014-Dec-12 15:22N 57°50' E 009°31'5 6.7
2014-Dec-12 14:33N 57°49' E 009°42'7 6.8
2014-Dec-12 13:33N 57°49' E 009°54'7 6.4
2014-Dec-12 12:31N 57°49' E 010°07'13 6.2
2014-Dec-12 10:27N 57°49' E 010°31'5 5.8
2014-Dec-12 09:32N 57°49' E 010°41'6 6.0
2014-Dec-12 08:33N 57°47' E 010°51'7 7.4
2014-Dec-12 07:33N 57°44' E 011°04'7 6.9
2014-Dec-12 06:33N 57°42' E 011°16'6 5.6
2014-Dec-12 05:33N 57°39' E 011°26'6 5.7
2014-Dec-12 04:34N 57°37' E 011°35'6 5.5
2014-Dec-12 03:34N 57°39' E 011°45'2 2.0
2014-Dec-12 02:31N 57°40' E 011°48'0 0.0
2014-Dec-12 01:31N 57°40' E 011°48'5 5.1
2014-Dec-12 00:33N 57°37' E 011°41'8 8.4
2014-Dec-11 23:33N 57°29' E 011°38'7 6.7
2014-Dec-11 22:33N 57°22' E 011°39'7 7.3
2014-Dec-11 21:33N 57°15' E 011°39'10 8.1
2014-Dec-11 20:19N 57°05' E 011°42'5 7.0
2014-Dec-11 19:33N 56°60' E 011°45'7 6.8
2014-Dec-11 18:33N 56°54' E 011°49'7 7.3
2014-Dec-11 17:33N 56°47' E 011°56'7 7.0
2014-Dec-11 16:33N 56°41' E 012°02'7 6.8
2014-Dec-11 15:31N 56°35' E 012°08'23 7.0
2014-Dec-11 12:11N 56°14' E 012°25'5 7.4
2014-Dec-11 11:34N 56°10' E 012°29'7 7.4
2014-Dec-11 10:33N 56°04' E 012°38'6 6.3
2014-Dec-11 09:34N 55°58' E 012°42'7 7.5
2014-Dec-11 08:33N 55°51' E 012°44'8 8.5
2014-Dec-11 07:33N 55°43' E 012°41'7 7.4
2014-Dec-11 06:33N 55°35' E 012°42'7 7.3
2014-Dec-11 05:33N 55°28' E 012°43'8 8.4
2014-Dec-11 04:33N 55°19' E 012°41'7 6.7
2014-Dec-11 03:33N 55°16' E 012°52'5 5.3
2014-Dec-11 02:33N 55°16' E 013°01'19 4.7
2014-Dec-10 22:33N 55°15' E 013°34'5 4.4
2014-Dec-10 21:31N 55°15' E 013°42'5 4.9
2014-Dec-10 20:33N 55°14' E 013°50'5 5.1
2014-Dec-10 19:33N 55°14' E 013°59'5 5.2
2014-Dec-10 18:33N 55°14' E 014°08'5 4.6
2014-Dec-10 17:33N 55°14' E 014°16'4 4.2
2014-Dec-10 16:33N 55°17' E 014°21'4 3.7
2014-Dec-10 15:34N 55°20' E 014°26'4 3.6
2014-Dec-10 14:33N 55°22' E 014°30'3 3.3
2014-Dec-10 13:33N 55°25' E 014°33'3 2.6
2014-Dec-10 12:33N 55°26' E 014°37'3 3.1
2014-Dec-10 11:33N 55°27' E 014°42'3 3.1
2014-Dec-10 10:34N 55°27' E 014°48'4 3.7
2014-Dec-10 09:34N 55°27' E 014°54'4 4.4
2014-Dec-10 08:34N 55°27' E 015°02'5 4.9
2014-Dec-10 07:34N 55°27' E 015°11'5 4.8
2014-Dec-10 06:34N 55°27' E 015°19'5 4.6
2014-Dec-10 05:32N 55°28' E 015°27'5 4.8
2014-Dec-10 04:33N 55°28' E 015°36'5 4.6
2014-Dec-10 03:33N 55°28' E 015°44'  
2014-Dec-07 16:27N 55°14' E 018°54'1111.8
2014-Dec-07 15:31N 55°10' E 018°36'1211.9
2014-Dec-07 14:31N 55°05' E 018°17'  
Track history (hours):
 
Tides and Currents Weather Stations Pressure Air Temp Water Temp Dewpoint Dewpoint Depression Visibility Wind Speed Wind Dir Waves Ship Positions

Wilson Gdynia

Last reported at 2014-Dec-17 06:15 UTC. Time now 2014-Dec-18 16:24 UTC.
Position N 58°02' W 006°09'.

Length 88 m; draft 5.5 m.

Type: Cargo ship. MMSI: 314192000.

Date/timePositionNaut miles runAvg speedWind from/ knotsBaromVisibWave heightAir tempDewpointWater temp
2014-Dec-17 06:15N 58°02' W 006°09'5 7.6
2014-Dec-17 05:33N 58°06' W 006°03'8 7.5
2014-Dec-17 04:33N 58°11' W 005°53'7 7.2
2014-Dec-17 03:34N 58°17' W 005°43'47 6.6
2014-Dec-16 20:31N 58°41' W 004°27'7 7.4
2014-Dec-16 19:34N 58°42' W 004°14'7 6.9
2014-Dec-16 18:33N 58°42' W 004°00'6 6.2
2014-Dec-16 17:33N 58°42' W 003°48'6 5.5
2014-Dec-16 16:33N 58°43' W 003°38'5 4.6
2014-Dec-16 15:28N 58°43' W 003°28'9 4.3
2014-Dec-16 13:19N 58°43' W 003°10'4 5.9
2014-Dec-16 12:33N 58°43' W 003°02'8 7.9
2014-Dec-16 11:32N 58°42' W 002°46'  
2014-Dec-12 15:22N 57°50' E 009°31'5 6.7
2014-Dec-12 14:33N 57°49' E 009°42'7 6.8
2014-Dec-12 13:33N 57°49' E 009°54'7 6.4
2014-Dec-12 12:31N 57°49' E 010°07'13 6.2
2014-Dec-12 10:27N 57°49' E 010°31'5 5.8
2014-Dec-12 09:32N 57°49' E 010°41'6 6.0
2014-Dec-12 08:33N 57°47' E 010°51'7 7.4
2014-Dec-12 07:33N 57°44' E 011°04'7 6.9
2014-Dec-12 06:33N 57°42' E 011°16'6 5.6
2014-Dec-12 05:33N 57°39' E 011°26'6 5.7
2014-Dec-12 04:34N 57°37' E 011°35'6 5.5
2014-Dec-12 03:34N 57°39' E 011°45'2 2.0
2014-Dec-12 02:31N 57°40' E 011°48'0 0.0
2014-Dec-12 01:31N 57°40' E 011°48'5 5.1
2014-Dec-12 00:33N 57°37' E 011°41'8 8.4
2014-Dec-11 23:33N 57°29' E 011°38'7 6.7
2014-Dec-11 22:33N 57°22' E 011°39'7 7.3
2014-Dec-11 21:33N 57°15' E 011°39'10 8.1
2014-Dec-11 20:19N 57°05' E 011°42'5 7.0
2014-Dec-11 19:33N 56°60' E 011°45'7 6.8
2014-Dec-11 18:33N 56°54' E 011°49'7 7.3
2014-Dec-11 17:33N 56°47' E 011°56'7 7.0
2014-Dec-11 16:33N 56°41' E 012°02'7 6.8
2014-Dec-11 15:31N 56°35' E 012°08'23 7.0
2014-Dec-11 12:11N 56°14' E 012°25'5 7.4
2014-Dec-11 11:34N 56°10' E 012°29'7 7.4
2014-Dec-11 10:33N 56°04' E 012°38'6 6.3
2014-Dec-11 09:34N 55°58' E 012°42'7 7.5
2014-Dec-11 08:33N 55°51' E 012°44'8 8.5
2014-Dec-11 07:33N 55°43' E 012°41'7 7.4
2014-Dec-11 06:33N 55°35' E 012°42'7 7.3
2014-Dec-11 05:33N 55°28' E 012°43'8 8.4
2014-Dec-11 04:33N 55°19' E 012°41'7 6.7
2014-Dec-11 03:33N 55°16' E 012°52'5 5.3
2014-Dec-11 02:33N 55°16' E 013°01'19 4.7
2014-Dec-10 22:33N 55°15' E 013°34'5 4.4
2014-Dec-10 21:31N 55°15' E 013°42'5 4.9
2014-Dec-10 20:33N 55°14' E 013°50'5 5.1
2014-Dec-10 19:33N 55°14' E 013°59'5 5.2
2014-Dec-10 18:33N 55°14' E 014°08'5 4.6
2014-Dec-10 17:33N 55°14' E 014°16'4 4.2
2014-Dec-10 16:33N 55°17' E 014°21'4 3.7
2014-Dec-10 15:34N 55°20' E 014°26'4 3.6
2014-Dec-10 14:33N 55°22' E 014°30'3 3.3
2014-Dec-10 13:33N 55°25' E 014°33'3 2.6
2014-Dec-10 12:33N 55°26' E 014°37'3 3.1
2014-Dec-10 11:33N 55°27' E 014°42'3 3.1
2014-Dec-10 10:34N 55°27' E 014°48'4 3.7
2014-Dec-10 09:34N 55°27' E 014°54'4 4.4
2014-Dec-10 08:34N 55°27' E 015°02'5 4.9
2014-Dec-10 07:34N 55°27' E 015°11'5 4.8
2014-Dec-10 06:34N 55°27' E 015°19'5 4.6
2014-Dec-10 05:32N 55°28' E 015°27'5 4.8
2014-Dec-10 04:33N 55°28' E 015°36'5 4.6
2014-Dec-10 03:33N 55°28' E 015°44'  
2014-Dec-07 16:27N 55°14' E 018°54'1111.8
2014-Dec-07 15:31N 55°10' E 018°36'1211.9
2014-Dec-07 14:31N 55°05' E 018°17'  

Dump ship's entire track history